createdAt,value
2022-10-23T00:03:46.915Z,14.14
2022-10-23T00:09:13.578Z,14.17
2022-10-23T00:14:36.644Z,14.12
2022-10-23T00:19:59.835Z,14.11
2022-10-23T00:25:24.324Z,14.09
2022-10-23T00:30:47.408Z,14.10
2022-10-23T00:36:13.751Z,14.18
2022-10-23T00:41:40.886Z,14.18
2022-10-23T00:47:04.004Z,14.12
2022-10-23T00:52:27.110Z,14.11
2022-10-23T00:57:52.489Z,14.07
2022-10-23T01:03:17.364Z,14.08
2022-10-23T01:08:46.158Z,13.93
2022-10-23T01:14:17.686Z,14.25
2022-10-23T01:19:49.854Z,14.23
2022-10-23T01:25:23.030Z,14.11
2022-10-23T01:30:48.127Z,14.04
2022-10-23T01:36:13.911Z,14.02
2022-10-23T01:41:42.307Z,14.08
2022-10-23T01:47:08.801Z,14.03
2022-10-23T01:52:44.013Z,13.95
2022-10-23T01:58:08.502Z,13.88
2022-10-23T02:03:38.697Z,13.81
2022-10-23T02:09:01.849Z,13.90
2022-10-23T02:14:32.283Z,13.90
2022-10-23T02:20:01.568Z,13.95
2022-10-23T02:25:30.519Z,13.96
2022-10-23T02:30:54.181Z,14.02
2022-10-23T02:36:20.013Z,13.94
2022-10-23T02:41:46.051Z,13.97
2022-10-23T02:47:17.582Z,13.92
2022-10-23T02:52:45.563Z,13.92
2022-10-23T02:58:11.935Z,13.95
2022-10-23T03:03:42.393Z,13.99
2022-10-23T03:09:10.432Z,13.95
2022-10-23T03:14:35.285Z,13.92
2022-10-23T03:19:59.365Z,13.91
2022-10-23T03:25:23.788Z,13.98
2022-10-23T03:30:47.239Z,13.96
2022-10-23T03:36:11.142Z,14.05
2022-10-23T03:41:35.645Z,14.00
2022-10-23T03:46:59.109Z,13.92
2022-10-23T03:57:52.399Z,13.84
2022-10-23T04:03:16.505Z,13.81
2022-10-23T04:08:39.783Z,13.77
2022-10-23T04:14:12.577Z,13.75
2022-10-23T04:19:35.670Z,13.71
2022-10-23T04:24:58.758Z,13.65
2022-10-23T04:30:23.317Z,13.67
2022-10-23T04:35:46.576Z,13.50
2022-10-23T04:41:09.819Z,13.48
2022-10-23T04:46:34.461Z,13.52
2022-10-23T04:51:57.581Z,13.52
2022-10-23T04:57:39.463Z,13.44
2022-10-23T05:03:06.991Z,13.46
2022-10-23T05:08:37.139Z,13.41
2022-10-23T05:14:25.296Z,13.41
2022-10-23T05:19:52.436Z,13.45
2022-10-23T05:25:17.213Z,13.21
2022-10-23T05:30:46.211Z,13.37
2022-10-23T05:36:12.836Z,13.44
2022-10-23T05:41:36.139Z,13.53
2022-10-23T05:46:59.615Z,13.59
2022-10-23T05:52:43.686Z,13.61
2022-10-23T05:58:24.579Z,13.69
2022-10-23T06:04:16.847Z,13.80
2022-10-23T06:09:54.347Z,13.82
2022-10-23T06:15:17.719Z,13.86
2022-10-23T06:20:56.839Z,13.84
2022-10-23T06:26:23.734Z,13.89
2022-10-23T06:32:05.877Z,13.78
2022-10-23T06:37:29.537Z,13.90
2022-10-23T06:43:03.179Z,13.95
2022-10-23T06:48:46.772Z,14.03
2022-10-23T06:54:16.995Z,14.13
2022-10-23T06:59:56.294Z,14.13
2022-10-23T07:05:20.724Z,14.18
2022-10-23T07:10:44.396Z,14.15
2022-10-23T07:16:14.011Z,14.18
2022-10-23T07:21:37.433Z,14.24
2022-10-23T07:27:26.802Z,14.26
2022-10-23T07:32:58.332Z,14.38
2022-10-23T07:38:27.946Z,14.41
2022-10-23T07:43:51.647Z,14.36
2022-10-23T07:49:16.483Z,14.56
2022-10-23T07:54:40.017Z,14.77
2022-10-23T08:00:10.350Z,14.83
2022-10-23T08:05:37.989Z,14.84
2022-10-23T08:11:01.626Z,14.92
2022-10-23T08:16:30.412Z,15.02
2022-10-23T08:22:00.782Z,15.13
2022-10-23T08:27:24.037Z,15.18
2022-10-23T08:32:47.215Z,15.20
2022-10-23T08:38:12.898Z,15.29
2022-10-23T08:43:43.298Z,15.36
2022-10-23T08:49:44.405Z,15.45
2022-10-23T08:55:17.103Z,15.55
2022-10-23T09:00:40.213Z,15.74
2022-10-23T09:06:10.613Z,15.89
2022-10-23T09:11:39.208Z,15.93
2022-10-23T09:17:10.697Z,15.95
2022-10-23T09:22:33.890Z,16.11
2022-10-23T09:28:01.451Z,16.10
2022-10-23T09:33:28.137Z,16.03
2022-10-23T09:38:53.905Z,16.26
2022-10-23T09:44:20.883Z,16.12
2022-10-23T09:49:49.632Z,16.15
2022-10-23T09:55:21.022Z,16.31
2022-10-23T10:00:52.235Z,16.32
2022-10-23T10:06:33.575Z,16.34
2022-10-23T10:11:59.236Z,16.40
2022-10-23T10:17:36.511Z,16.48
2022-10-23T10:23:05.388Z,16.47
2022-10-23T10:28:33.121Z,16.59
2022-10-23T10:34:08.125Z,16.42
2022-10-23T10:39:40.182Z,16.46
2022-10-23T10:45:15.753Z,16.48
2022-10-23T10:50:45.098Z,16.45
2022-10-23T10:56:27.148Z,16.24
2022-10-23T11:01:54.743Z,16.27
2022-10-23T11:07:23.303Z,16.40
2022-10-23T11:12:47.484Z,16.54
2022-10-23T11:18:16.327Z,16.76
2022-10-23T11:24:26.808Z,16.99
2022-10-23T11:30:14.919Z,17.15
2022-10-23T11:35:45.415Z,17.29
2022-10-23T11:41:22.280Z,17.30
2022-10-23T11:47:03.586Z,17.32
2022-10-23T11:52:26.750Z,17.26
2022-10-23T11:58:21.254Z,17.19
2022-10-23T12:03:54.220Z,17.09
2022-10-23T12:09:37.417Z,16.92
2022-10-23T12:15:20.010Z,17.02
2022-10-23T12:20:50.491Z,17.18
2022-10-23T12:26:39.688Z,17.26
2022-10-23T12:32:07.726Z,17.30
2022-10-23T12:37:54.607Z,17.38
2022-10-23T12:43:25.075Z,17.43
2022-10-23T12:48:50.407Z,17.33
2022-10-23T12:54:19.995Z,17.24
2022-10-23T12:59:45.951Z,17.30
2022-10-23T13:05:13.246Z,17.14
2022-10-23T13:10:37.926Z,17.20
2022-10-23T13:16:15.069Z,17.23
2022-10-23T13:21:38.247Z,17.34
2022-10-23T13:27:02.672Z,17.56
2022-10-23T13:32:27.755Z,17.73
2022-10-23T13:37:51.632Z,17.74
2022-10-23T13:43:18.909Z,17.91
2022-10-23T13:48:42.056Z,17.94
2022-10-23T13:54:05.437Z,17.90
2022-10-23T13:59:29.889Z,18.12
2022-10-23T14:04:53.584Z,17.98
2022-10-23T14:10:16.687Z,18.17
2022-10-23T14:15:41.112Z,18.61
2022-10-23T14:21:05.450Z,18.74
2022-10-23T14:26:30.303Z,18.58
2022-10-23T14:31:55.072Z,18.63
2022-10-23T14:37:19.488Z,18.32
2022-10-23T14:42:42.608Z,18.27
2022-10-23T14:48:07.335Z,18.25
2022-10-23T14:53:30.433Z,18.23
2022-10-23T14:58:53.505Z,18.28
2022-10-23T15:04:18.013Z,18.29
2022-10-23T15:09:41.047Z,18.29
2022-10-23T15:15:07.535Z,18.36
2022-10-23T15:20:32.092Z,18.18
2022-10-23T15:25:58.966Z,18.25
2022-10-23T15:31:41.906Z,18.18
2022-10-23T15:37:06.462Z,18.17
2022-10-23T15:42:29.613Z,18.07
2022-10-23T15:47:52.727Z,18.00
2022-10-23T15:53:17.152Z,17.97
2022-10-23T15:58:40.350Z,17.87
2022-10-23T16:04:03.372Z,17.89
2022-10-23T16:09:27.820Z,17.85
2022-10-23T16:14:51.605Z,17.82
2022-10-23T16:20:14.779Z,17.80
2022-10-23T16:25:39.498Z,17.76
2022-10-23T16:31:03.320Z,17.74
2022-10-23T16:36:26.580Z,17.76
2022-10-23T16:42:03.213Z,17.74
2022-10-23T16:47:52.386Z,17.76
2022-10-23T16:53:15.473Z,17.70
2022-10-23T16:58:41.830Z,17.59
2022-10-23T17:04:07.118Z,17.45
2022-10-23T17:09:31.309Z,17.55
2022-10-23T17:14:55.718Z,17.31
2022-10-23T17:20:18.759Z,17.41
2022-10-23T17:25:42.058Z,17.39
2022-10-23T17:31:12.294Z,17.36
2022-10-23T17:36:38.692Z,17.29
2022-10-23T17:42:01.874Z,17.28
2022-10-23T17:47:26.414Z,17.38
2022-10-23T17:52:49.474Z,17.37
2022-10-23T17:58:12.572Z,17.29
2022-10-23T18:03:38.156Z,17.40
2022-10-23T18:09:01.980Z,17.26
2022-10-23T18:14:27.299Z,17.25
2022-10-23T18:19:57.319Z,17.26
2022-10-23T18:25:22.677Z,17.29
2022-10-23T18:30:47.241Z,17.34
2022-10-23T18:36:16.914Z,17.35
2022-10-23T18:41:41.604Z,17.48
2022-10-23T18:47:05.034Z,17.54
2022-10-23T18:52:29.580Z,17.70
2022-10-23T18:57:52.626Z,17.58
2022-10-23T19:03:16.160Z,17.51
2022-10-23T19:08:41.991Z,17.31
2022-10-23T19:14:05.655Z,17.23
2022-10-23T19:19:33.132Z,17.05
2022-10-23T19:25:00.746Z,16.91
2022-10-23T19:30:24.270Z,16.51
2022-10-23T19:35:47.364Z,16.56
2022-10-23T19:41:11.955Z,16.51
2022-10-23T19:46:36.435Z,16.45
2022-10-23T19:51:59.499Z,16.68
2022-10-23T19:57:23.842Z,16.59
2022-10-23T20:02:48.226Z,16.64
2022-10-23T20:08:13.239Z,16.43
2022-10-23T20:13:37.661Z,16.27
2022-10-23T20:19:23.474Z,16.22
2022-10-23T20:24:46.502Z,16.08
2022-10-23T20:30:12.246Z,15.98
2022-10-23T20:35:41.516Z,15.81
2022-10-23T20:41:05.815Z,15.70
2022-10-23T20:46:30.248Z,15.70
2022-10-23T20:51:55.642Z,15.66
2022-10-23T20:57:21.278Z,15.71
2022-10-23T21:02:48.567Z,15.66
2022-10-23T21:08:14.311Z,15.62
2022-10-23T21:13:37.397Z,15.49
2022-10-23T21:19:02.712Z,15.16
2022-10-23T21:24:25.745Z,15.41
2022-10-23T21:29:48.828Z,15.31
2022-10-23T21:35:13.258Z,15.28
2022-10-23T21:40:36.297Z,15.12
2022-10-23T21:46:04.933Z,14.89
2022-10-23T21:51:32.331Z,14.92
2022-10-23T21:56:55.433Z,15.05
2022-10-23T22:02:18.633Z,14.90
2022-10-23T22:07:47.256Z,14.95
2022-10-23T22:13:10.261Z,15.02
2022-10-23T22:18:33.346Z,14.97
2022-10-23T22:23:59.540Z,14.98
2022-10-23T22:29:24.931Z,14.88
2022-10-23T22:34:52.755Z,14.81
2022-10-23T22:40:17.970Z,14.91
2022-10-23T22:45:40.977Z,15.09
2022-10-23T22:51:07.215Z,15.13
2022-10-23T22:56:33.367Z,15.23
2022-10-23T23:01:56.437Z,15.22
2022-10-23T23:07:19.538Z,15.20
2022-10-23T23:12:43.893Z,15.24
2022-10-23T23:18:06.925Z,15.26
2022-10-23T23:23:30.047Z,15.35
2022-10-23T23:28:55.316Z,15.24
2022-10-23T23:34:18.326Z,15.31
2022-10-23T23:39:41.359Z,15.22
2022-10-23T23:45:14.234Z,15.32
2022-10-23T23:50:37.937Z,15.24
2022-10-23T23:56:00.936Z,15.43
